createdAt,value
2023-02-25T00:00:30.835Z,1.85
2023-02-25T00:02:58.555Z,2.03
2023-02-25T00:05:25.815Z,2.28
2023-02-25T00:07:53.112Z,2.33
2023-02-25T00:10:19.705Z,1.77
2023-02-25T00:12:46.232Z,2.10
2023-02-25T00:15:12.786Z,1.83
2023-02-25T00:17:39.355Z,1.92
2023-02-25T00:20:08.688Z,1.80
2023-02-25T00:22:36.100Z,2.00
2023-02-25T00:25:02.666Z,2.58
2023-02-25T00:27:29.218Z,1.77
2023-02-25T00:29:55.763Z,1.65
2023-02-25T00:32:23.198Z,1.85
2023-02-25T00:34:49.887Z,1.90
2023-02-25T00:37:16.455Z,1.50
2023-02-25T00:39:43.110Z,1.85
2023-02-25T00:42:15.174Z,2.88
2023-02-25T00:44:48.619Z,1.63
2023-02-25T00:47:17.154Z,1.83
2023-02-25T00:49:48.049Z,1.95
2023-02-25T00:52:15.429Z,1.60
2023-02-25T00:54:42.213Z,1.70
2023-02-25T00:57:09.057Z,2.10
2023-02-25T00:59:35.604Z,1.83
2023-02-25T01:02:02.242Z,1.52
2023-02-25T01:04:28.804Z,2.38
2023-02-25T01:06:55.460Z,2.28
2023-02-25T01:09:22.280Z,2.10
2023-02-25T01:11:49.544Z,1.92
2023-02-25T01:14:21.514Z,1.63
2023-02-25T01:16:49.154Z,1.90
2023-02-25T01:19:19.484Z,2.35
2023-02-25T01:24:22.605Z,2.35
2023-02-25T01:26:51.587Z,2.25
2023-02-25T01:29:23.366Z,1.88
2023-02-25T01:31:58.088Z,2.50
2023-02-25T01:34:25.587Z,2.70
2023-02-25T01:36:52.373Z,2.13
2023-02-25T01:39:20.460Z,2.05
2023-02-25T01:41:47.375Z,2.72
2023-02-25T01:44:34.857Z,1.58
2023-02-25T01:47:01.640Z,2.75
2023-02-25T01:49:39.699Z,2.03
2023-02-25T01:52:24.998Z,2.00
2023-02-25T01:54:55.584Z,2.58
2023-02-25T01:57:23.075Z,2.05
2023-02-25T01:59:51.742Z,2.03
2023-02-25T02:02:21.280Z,1.85
2023-02-25T02:04:51.092Z,2.58
2023-02-25T02:07:19.889Z,1.90
2023-02-25T02:09:46.766Z,1.80
2023-02-25T02:12:13.293Z,2.45
2023-02-25T02:14:41.865Z,2.63
2023-02-25T02:17:24.516Z,1.50
2023-02-25T02:19:53.759Z,2.28
2023-02-25T02:22:35.503Z,1.45
2023-02-25T02:25:29.983Z,2.15
2023-02-25T02:28:15.142Z,1.77
2023-02-25T02:31:09.915Z,1.50
2023-02-25T02:34:09.304Z,3.13
2023-02-25T02:36:49.826Z,1.80
2023-02-25T02:39:51.589Z,3.00
2023-02-25T02:42:27.505Z,2.67
2023-02-25T02:45:03.181Z,1.50
2023-02-25T02:47:51.535Z,2.20
2023-02-25T02:50:34.703Z,1.50
2023-02-25T02:53:12.883Z,1.50
2023-02-25T02:55:43.665Z,1.67
2023-02-25T02:58:32.347Z,1.98
2023-02-25T03:01:04.630Z,1.20
2023-02-25T03:03:34.012Z,1.95
2023-02-25T03:06:00.661Z,1.77
2023-02-25T03:08:29.835Z,1.30
2023-02-25T03:10:56.431Z,1.08
2023-02-25T03:13:23.061Z,1.52
2023-02-25T03:15:51.739Z,1.30
2023-02-25T03:18:29.706Z,1.30
2023-02-25T03:20:58.580Z,1.33
2023-02-25T03:23:32.681Z,1.58
2023-02-25T03:26:09.065Z,1.27
2023-02-25T03:28:36.079Z,1.60
2023-02-25T03:31:22.343Z,1.35
2023-02-25T03:34:01.545Z,1.52
2023-02-25T03:36:33.315Z,1.48
2023-02-25T03:39:07.611Z,1.55
2023-02-25T03:41:37.139Z,1.55
2023-02-25T03:44:09.411Z,1.75
2023-02-25T03:46:36.739Z,1.75
2023-02-25T03:49:05.192Z,1.98
2023-02-25T03:51:35.597Z,1.42
2023-02-25T03:54:02.353Z,0.98
2023-02-25T03:56:29.082Z,2.10
2023-02-25T03:58:55.726Z,1.77
2023-02-25T04:01:27.734Z,1.75
2023-02-25T04:03:54.279Z,1.30
2023-02-25T04:06:22.943Z,1.60
2023-02-25T04:08:50.068Z,1.55
2023-02-25T04:11:16.591Z,1.77
2023-02-25T04:13:43.154Z,1.25
2023-02-25T04:16:09.695Z,1.77
2023-02-25T04:18:36.215Z,1.00
2023-02-25T04:21:04.465Z,1.25
2023-02-25T04:23:31.031Z,1.65
2023-02-25T04:25:57.512Z,1.70
2023-02-25T04:28:24.061Z,0.75
2023-02-25T04:30:50.771Z,1.70
2023-02-25T04:33:17.406Z,1.45
2023-02-25T04:35:43.935Z,1.88
2023-02-25T04:38:10.480Z,1.40
2023-02-25T04:40:37.170Z,1.40
2023-02-25T04:43:03.667Z,1.77
2023-02-25T04:45:30.381Z,1.52
2023-02-25T04:47:57.152Z,2.08
2023-02-25T04:50:24.663Z,1.67
2023-02-25T04:52:51.218Z,2.30
2023-02-25T04:55:17.771Z,1.42
2023-02-25T04:57:44.330Z,1.80
2023-02-25T05:00:17.216Z,2.17
2023-02-25T05:02:43.726Z,1.88
2023-02-25T05:05:10.472Z,2.00
2023-02-25T05:07:37.271Z,1.08
2023-02-25T05:10:03.989Z,2.05
2023-02-25T05:12:30.533Z,1.42
2023-02-25T05:14:57.067Z,1.77
2023-02-25T05:17:23.585Z,1.83
2023-02-25T05:19:50.107Z,1.40
2023-02-25T05:22:16.631Z,1.98
2023-02-25T05:24:43.203Z,1.60
2023-02-25T05:27:09.729Z,2.15
2023-02-25T05:29:36.303Z,1.92
2023-02-25T05:32:03.375Z,1.73
2023-02-25T05:34:30.167Z,1.73
2023-02-25T05:36:56.684Z,2.45
2023-02-25T05:39:23.203Z,1.40
2023-02-25T05:41:49.692Z,1.20
2023-02-25T05:44:16.172Z,1.42
2023-02-25T05:46:42.839Z,2.15
2023-02-25T05:49:09.894Z,1.92
2023-02-25T05:51:36.457Z,1.83
2023-02-25T05:54:03.026Z,2.10
2023-02-25T05:56:32.167Z,1.30
2023-02-25T05:58:59.003Z,1.85
2023-02-25T06:01:27.295Z,1.63
2023-02-25T06:03:57.638Z,1.90
2023-02-25T06:08:53.624Z,1.90
2023-02-25T06:11:26.288Z,1.65
2023-02-25T06:13:54.642Z,3.28
2023-02-25T06:16:22.557Z,2.08
2023-02-25T06:18:49.303Z,1.42
2023-02-25T06:21:16.134Z,1.88
2023-02-25T06:23:44.129Z,1.63
2023-02-25T06:26:13.564Z,1.95
2023-02-25T06:28:40.229Z,1.92
2023-02-25T06:31:08.989Z,1.95
2023-02-25T06:33:36.042Z,1.33
2023-02-25T06:36:02.726Z,1.88
2023-02-25T06:38:29.265Z,1.48
2023-02-25T06:40:55.751Z,1.25
2023-02-25T06:43:22.296Z,1.95
2023-02-25T06:45:49.018Z,1.63
2023-02-25T06:48:24.364Z,1.95
2023-02-25T06:50:51.193Z,1.25
2023-02-25T06:53:20.349Z,1.67
2023-02-25T06:55:46.866Z,1.58
2023-02-25T06:58:15.599Z,1.58
2023-02-25T07:00:42.269Z,1.45
2023-02-25T07:03:12.370Z,1.98
2023-02-25T07:05:39.190Z,2.38
2023-02-25T07:08:05.915Z,1.83
2023-02-25T07:10:32.752Z,1.70
2023-02-25T07:12:59.468Z,2.38
2023-02-25T07:15:26.184Z,1.52
2023-02-25T07:17:52.744Z,2.03
2023-02-25T07:20:19.296Z,1.77
2023-02-25T07:22:45.852Z,1.63
2023-02-25T07:25:12.382Z,1.45
2023-02-25T07:27:44.658Z,1.85
2023-02-25T07:30:12.760Z,2.20
2023-02-25T07:32:43.241Z,2.08
2023-02-25T07:35:10.363Z,1.50
2023-02-25T07:37:37.202Z,2.10
2023-02-25T07:40:05.938Z,1.38
2023-02-25T07:42:32.526Z,2.42
2023-02-25T07:45:01.763Z,2.28
2023-02-25T07:47:28.683Z,4.68
2023-02-25T07:49:55.195Z,4.38
2023-02-25T07:52:21.688Z,1.48
2023-02-25T07:54:48.201Z,2.00
2023-02-25T07:57:14.716Z,2.80
2023-02-25T07:59:41.283Z,1.52
2023-02-25T08:02:08.138Z,2.97
2023-02-25T08:04:34.833Z,1.98
2023-02-25T08:07:01.372Z,1.55
2023-02-25T08:09:27.913Z,2.95
2023-02-25T08:11:54.433Z,2.55
2023-02-25T08:14:20.939Z,1.42
2023-02-25T08:16:48.624Z,1.40
2023-02-25T08:19:15.190Z,1.40
2023-02-25T08:21:41.694Z,2.25
2023-02-25T08:24:08.661Z,2.03
2023-02-25T08:26:35.561Z,2.55
2023-02-25T08:29:02.263Z,1.50
2023-02-25T08:31:29.288Z,1.77
2023-02-25T08:33:56.082Z,1.90
2023-02-25T08:36:25.997Z,1.95
2023-02-25T08:38:52.905Z,1.75
2023-02-25T08:41:21.308Z,2.13
2023-02-25T08:43:52.492Z,1.83
2023-02-25T08:46:21.122Z,1.27
2023-02-25T08:48:52.585Z,1.30
2023-02-25T08:51:21.048Z,1.80
2023-02-25T08:53:47.789Z,1.90
2023-02-25T08:56:15.692Z,1.77
2023-02-25T08:58:42.804Z,1.38
2023-02-25T09:01:12.118Z,1.17
2023-02-25T09:03:40.193Z,2.00
2023-02-25T09:06:06.824Z,1.45
2023-02-25T09:08:33.398Z,1.38
2023-02-25T09:11:00.093Z,1.65
2023-02-25T09:13:26.574Z,1.85
2023-02-25T09:15:57.478Z,1.98
2023-02-25T09:18:24.256Z,1.40
2023-02-25T09:20:51.298Z,1.10
2023-02-25T09:23:17.940Z,1.20
2023-02-25T09:25:44.572Z,1.65
2023-02-25T09:28:12.117Z,2.63
2023-02-25T09:30:39.297Z,1.77
2023-02-25T09:33:06.060Z,3.53
2023-02-25T09:35:32.679Z,1.17
2023-02-25T09:37:59.270Z,1.05
2023-02-25T09:40:25.983Z,1.02
2023-02-25T09:43:16.108Z,1.85
2023-02-25T09:45:42.855Z,2.38
2023-02-25T09:48:28.630Z,0.80
2023-02-25T09:51:03.063Z,1.30
2023-02-25T09:53:41.436Z,1.30
2023-02-25T09:56:08.903Z,1.65
2023-02-25T09:58:45.662Z,1.50
2023-02-25T10:01:21.572Z,1.77
2023-02-25T10:03:53.657Z,1.50
2023-02-25T10:06:33.560Z,1.45
2023-02-25T10:09:15.349Z,1.60
2023-02-25T10:11:50.617Z,0.90
2023-02-25T10:14:53.040Z,1.40
2023-02-25T10:17:36.824Z,1.45
2023-02-25T10:20:40.976Z,1.45
2023-02-25T10:23:40.269Z,1.67
2023-02-25T10:26:40.847Z,1.60
2023-02-25T10:29:24.862Z,1.48
2023-02-25T10:31:57.801Z,1.58
2023-02-25T10:34:26.870Z,1.30
2023-02-25T10:36:59.947Z,1.10
2023-02-25T10:39:28.378Z,1.27
2023-02-25T10:41:54.909Z,1.45
2023-02-25T10:44:21.521Z,2.10
2023-02-25T10:47:00.030Z,1.40
2023-02-25T10:49:28.537Z,1.60
2023-02-25T10:51:57.422Z,1.73
2023-02-25T10:54:24.437Z,1.38
2023-02-25T10:56:51.600Z,1.38
2023-02-25T10:59:26.130Z,1.20
2023-02-25T11:01:54.018Z,0.98
2023-02-25T11:04:28.747Z,1.17
2023-02-25T11:06:55.312Z,1.08
2023-02-25T11:09:21.758Z,1.75
2023-02-25T11:12:09.385Z,1.25
2023-02-25T11:14:38.957Z,1.63
2023-02-25T11:17:08.620Z,1.20
2023-02-25T11:19:39.606Z,1.88
2023-02-25T11:22:17.323Z,0.90
2023-02-25T11:24:45.281Z,0.60
2023-02-25T11:27:27.812Z,1.23
2023-02-25T11:29:59.360Z,0.85
2023-02-25T11:32:26.027Z,0.95
2023-02-25T11:34:56.724Z,1.30
2023-02-25T11:37:45.316Z,1.40
2023-02-25T11:40:40.572Z,2.97
2023-02-25T11:43:18.067Z,1.90
2023-02-25T11:45:58.040Z,1.10
2023-02-25T11:48:27.214Z,1.23
2023-02-25T11:51:39.838Z,1.88
2023-02-25T11:54:42.421Z,1.90
2023-02-25T11:57:16.268Z,1.92
2023-02-25T12:00:22.552Z,1.80
2023-02-25T12:03:03.057Z,1.27
2023-02-25T12:05:47.235Z,1.73
2023-02-25T12:08:28.656Z,2.05
2023-02-25T12:11:12.267Z,2.17
2023-02-25T12:14:11.215Z,1.85
2023-02-25T12:16:37.734Z,2.80
2023-02-25T12:19:24.685Z,1.60
2023-02-25T12:22:18.742Z,2.05
2023-02-25T12:25:04.885Z,2.00
2023-02-25T12:27:59.578Z,1.42
2023-02-25T12:30:51.103Z,1.25
2023-02-25T12:33:20.476Z,1.23
2023-02-25T12:36:15.270Z,1.45
2023-02-25T12:39:08.266Z,0.88
2023-02-25T12:41:37.528Z,1.67
2023-02-25T12:44:34.519Z,1.05
2023-02-25T12:47:15.814Z,1.10
2023-02-25T12:50:21.171Z,1.20
2023-02-25T12:55:31.755Z,1.38
2023-02-25T12:58:19.271Z,2.67
2023-02-25T13:01:03.740Z,1.20
2023-02-25T13:03:48.830Z,1.48
2023-02-25T13:06:30.239Z,1.10
2023-02-25T13:09:29.238Z,1.20
2023-02-25T13:12:32.982Z,1.85
2023-02-25T13:15:18.482Z,0.95
2023-02-25T13:18:29.957Z,0.88
2023-02-25T13:21:20.680Z,0.80
2023-02-25T13:24:13.231Z,1.50
2023-02-25T13:27:10.256Z,1.33
2023-02-25T13:29:44.384Z,1.00
2023-02-25T13:32:22.981Z,0.73
2023-02-25T13:35:11.024Z,0.80
2023-02-25T13:37:56.224Z,1.20
2023-02-25T13:40:35.471Z,1.10
2023-02-25T13:43:37.472Z,1.35
2023-02-25T13:46:27.706Z,1.13
2023-02-25T13:49:03.501Z,1.52
2023-02-25T13:54:51.816Z,0.85
2023-02-25T13:57:24.572Z,0.85
2023-02-25T14:00:09.588Z,1.10
2023-02-25T14:03:02.885Z,1.02
2023-02-25T14:06:14.968Z,0.80
2023-02-25T14:08:53.147Z,0.93
2023-02-25T14:11:43.622Z,1.15
2023-02-25T14:14:32.540Z,0.93
2023-02-25T14:17:14.968Z,1.23
2023-02-25T14:20:08.538Z,1.00
2023-02-25T14:22:51.002Z,1.05
2023-02-25T14:25:48.237Z,1.40
2023-02-25T14:28:44.624Z,1.10
2023-02-25T14:31:24.859Z,1.13
2023-02-25T14:34:28.637Z,1.20
2023-02-25T14:37:02.150Z,1.58
2023-02-25T14:39:38.814Z,1.23
2023-02-25T14:42:23.352Z,1.10
2023-02-25T14:44:55.653Z,0.95
2023-02-25T14:47:43.910Z,1.83
2023-02-25T14:50:11.084Z,1.40
2023-02-25T14:56:00.860Z,0.93
2023-02-25T14:58:55.372Z,1.80
2023-02-25T15:01:36.152Z,2.15
2023-02-25T15:04:43.420Z,1.10
2023-02-25T15:07:41.335Z,1.50
2023-02-25T15:10:32.899Z,0.93
2023-02-25T15:13:33.715Z,1.40
2023-02-25T15:16:38.243Z,1.08
2023-02-25T15:19:29.894Z,1.27
2023-02-25T15:22:20.559Z,1.15
2023-02-25T15:24:47.707Z,1.48
2023-02-25T15:27:41.924Z,1.40
2023-02-25T15:30:10.063Z,1.35
2023-02-25T15:32:53.033Z,2.05
2023-02-25T15:35:25.124Z,1.48
2023-02-25T15:37:51.595Z,1.10
2023-02-25T15:40:18.429Z,1.80
2023-02-25T15:42:55.077Z,0.88
2023-02-25T15:45:41.072Z,1.10
2023-02-25T15:48:07.600Z,1.38
2023-02-25T15:50:43.288Z,1.70
2023-02-25T15:53:19.984Z,1.20
2023-02-25T15:55:47.539Z,0.98
2023-02-25T15:58:26.041Z,1.30
2023-02-25T16:00:57.731Z,1.20
2023-02-25T16:03:33.169Z,1.08
2023-02-25T16:06:01.561Z,0.77
2023-02-25T16:08:42.640Z,1.20
2023-02-25T16:11:36.879Z,1.05
2023-02-25T16:14:12.611Z,0.82
2023-02-25T16:16:48.061Z,1.48
2023-02-25T16:19:18.428Z,1.05
2023-02-25T16:22:13.739Z,0.93
2023-02-25T16:24:46.147Z,1.33
2023-02-25T16:27:18.814Z,1.25
2023-02-25T16:29:54.232Z,1.10
2023-02-25T16:32:38.956Z,1.13
2023-02-25T16:35:23.526Z,0.75
2023-02-25T16:38:00.405Z,1.10
2023-02-25T16:40:39.440Z,1.80
2023-02-25T16:43:11.609Z,1.05
2023-02-25T16:45:44.039Z,0.88
2023-02-25T16:48:22.744Z,0.90
2023-02-25T16:50:49.725Z,0.80
2023-02-25T16:53:20.630Z,0.88
2023-02-25T16:55:47.583Z,1.00
2023-02-25T16:58:14.086Z,0.80
2023-02-25T17:00:56.696Z,1.00
2023-02-25T17:03:26.080Z,0.95
2023-02-25T17:06:03.768Z,0.93
2023-02-25T17:08:30.331Z,1.27
2023-02-25T17:10:58.900Z,1.30
2023-02-25T17:13:33.320Z,1.02
2023-02-25T17:16:01.660Z,1.50
2023-02-25T17:18:31.035Z,1.20
2023-02-25T17:21:23.758Z,1.05
2023-02-25T17:23:51.127Z,1.13
2023-02-25T17:26:19.219Z,2.17
2023-02-25T17:28:49.815Z,1.50
2023-02-25T17:31:19.696Z,1.15
2023-02-25T17:33:52.552Z,0.95
2023-02-25T17:36:27.156Z,0.82
2023-02-25T17:39:00.812Z,1.42
2023-02-25T17:41:27.923Z,1.00
2023-02-25T17:43:54.615Z,1.10
2023-02-25T17:46:35.715Z,1.40
2023-02-25T17:49:04.943Z,1.00
2023-02-25T17:51:36.864Z,1.75
2023-02-25T17:54:08.697Z,1.30
2023-02-25T17:56:36.586Z,1.48
2023-02-25T17:59:12.256Z,1.40
2023-02-25T18:01:44.668Z,1.00
2023-02-25T18:04:22.453Z,1.40
2023-02-25T18:06:49.093Z,1.10
2023-02-25T18:09:38.356Z,1.45
2023-02-25T18:12:13.443Z,1.75
2023-02-25T18:14:43.112Z,1.15
2023-02-25T18:17:29.415Z,1.00
2023-02-25T18:19:58.461Z,1.40
2023-02-25T18:22:39.785Z,0.82
2023-02-25T18:25:28.224Z,1.00
2023-02-25T18:27:54.956Z,1.42
2023-02-25T18:30:24.222Z,1.00
2023-02-25T18:32:50.951Z,1.15
2023-02-25T18:35:18.124Z,1.90
2023-02-25T18:37:46.647Z,1.27
2023-02-25T18:40:25.661Z,1.45
2023-02-25T18:42:52.158Z,1.27
2023-02-25T18:45:21.723Z,1.65
2023-02-25T18:47:48.681Z,1.65
2023-02-25T18:50:15.471Z,1.33
2023-02-25T18:52:42.468Z,0.93
2023-02-25T18:55:16.527Z,1.17
2023-02-25T18:57:43.317Z,1.33
2023-02-25T19:00:11.006Z,1.33
2023-02-25T19:03:18.684Z,1.45
2023-02-25T19:05:45.204Z,1.40
2023-02-25T19:08:14.166Z,1.20
2023-02-25T19:10:41.908Z,1.10
2023-02-25T19:13:16.309Z,1.63
2023-02-25T19:15:43.075Z,1.48
2023-02-25T19:18:12.061Z,1.23
2023-02-25T19:20:38.698Z,1.63
2023-02-25T19:23:06.933Z,1.52
2023-02-25T19:25:36.614Z,1.45
2023-02-25T19:28:04.959Z,1.35
2023-02-25T19:30:35.747Z,1.23
2023-02-25T19:33:04.985Z,1.52
2023-02-25T19:35:34.582Z,2.00
2023-02-25T19:38:01.233Z,2.33
2023-02-25T19:40:28.446Z,1.50
2023-02-25T19:42:55.580Z,2.25
2023-02-25T19:45:25.154Z,1.85
2023-02-25T19:47:53.054Z,1.17
2023-02-25T19:50:22.609Z,1.00
2023-02-25T19:52:49.359Z,2.22
2023-02-25T19:55:19.527Z,2.38
2023-02-25T19:57:48.486Z,1.63
2023-02-25T20:00:23.002Z,1.48
2023-02-25T20:02:52.003Z,1.45
2023-02-25T20:05:19.257Z,1.45
2023-02-25T20:07:48.811Z,1.10
2023-02-25T20:10:16.926Z,1.80
2023-02-25T20:12:48.330Z,1.60
2023-02-25T20:15:16.413Z,1.40
2023-02-25T20:17:45.054Z,1.98
2023-02-25T20:20:15.859Z,1.45
2023-02-25T20:22:45.440Z,2.20
2023-02-25T20:25:13.372Z,1.80
2023-02-25T20:27:40.824Z,2.13
2023-02-25T20:32:35.403Z,2.15
2023-02-25T20:35:05.458Z,1.88
2023-02-25T20:37:36.328Z,1.80
2023-02-25T20:40:09.748Z,1.80
2023-02-25T20:42:36.393Z,1.48
2023-02-25T20:45:03.900Z,1.85
2023-02-25T20:47:34.952Z,1.42
2023-02-25T20:50:02.606Z,1.42
2023-02-25T20:52:29.343Z,1.42
2023-02-25T20:54:56.007Z,1.83
2023-02-25T20:57:24.251Z,1.65
2023-02-25T20:59:51.515Z,1.90
2023-02-25T21:02:18.253Z,1.60
2023-02-25T21:04:45.524Z,1.30
2023-02-25T21:07:13.152Z,1.75
2023-02-25T21:09:40.075Z,1.92
2023-02-25T21:12:08.316Z,2.33
2023-02-25T21:14:35.218Z,2.22
2023-02-25T21:17:02.260Z,1.90
2023-02-25T21:19:28.879Z,2.58
2023-02-25T21:21:56.102Z,2.28
2023-02-25T21:24:23.166Z,2.22
2023-02-25T21:26:50.930Z,1.98
2023-02-25T21:29:17.899Z,1.63
2023-02-25T21:31:44.469Z,1.70
2023-02-25T21:34:12.051Z,1.70
2023-02-25T21:36:39.635Z,1.98
2023-02-25T21:39:06.800Z,1.83
2023-02-25T21:41:33.576Z,2.45
2023-02-25T21:44:00.176Z,2.92
2023-02-25T21:46:27.334Z,2.47
2023-02-25T21:48:55.808Z,3.13
2023-02-25T21:51:27.410Z,2.08
2023-02-25T21:53:59.431Z,1.88
2023-02-25T21:56:27.440Z,2.15
2023-02-25T21:58:56.030Z,1.98
2023-02-25T22:01:29.799Z,2.35
2023-02-25T22:03:57.054Z,2.40
2023-02-25T22:06:24.556Z,2.42
2023-02-25T22:08:52.177Z,3.00
2023-02-25T22:11:24.992Z,2.65
2023-02-25T22:13:51.587Z,1.75
2023-02-25T22:16:18.811Z,1.83
2023-02-25T22:18:45.913Z,1.70
2023-02-25T22:21:15.784Z,1.95
2023-02-25T22:23:43.637Z,1.40
2023-02-25T22:26:15.457Z,2.03
2023-02-25T22:28:43.284Z,1.50
2023-02-25T22:31:18.013Z,1.85
2023-02-25T22:33:45.324Z,2.28
2023-02-25T22:36:13.081Z,1.50
2023-02-25T22:38:41.603Z,1.40
2023-02-25T22:41:17.673Z,1.30
2023-02-25T22:43:45.103Z,1.90
2023-02-25T22:46:14.828Z,2.22
2023-02-25T22:48:43.649Z,1.77
2023-02-25T22:51:11.304Z,1.52
2023-02-25T22:53:39.530Z,1.52
2023-02-25T22:56:10.352Z,2.10
2023-02-25T22:58:38.405Z,1.05
2023-02-25T23:01:06.206Z,1.50
2023-02-25T23:03:32.719Z,1.10
2023-02-25T23:05:59.274Z,1.67
2023-02-25T23:08:26.312Z,1.60
2023-02-25T23:10:53.019Z,1.38
2023-02-25T23:13:19.588Z,1.40
2023-02-25T23:15:46.249Z,1.70
2023-02-25T23:18:14.276Z,1.33
2023-02-25T23:20:41.381Z,1.77
2023-02-25T23:23:08.451Z,1.38
2023-02-25T23:25:40.866Z,1.45
2023-02-25T23:28:08.747Z,1.55
2023-02-25T23:30:38.811Z,0.98
2023-02-25T23:33:06.234Z,1.23
2023-02-25T23:35:33.632Z,1.17
2023-02-25T23:38:00.582Z,1.48
2023-02-25T23:40:27.089Z,1.50
2023-02-25T23:42:53.659Z,1.48
2023-02-25T23:45:20.202Z,13.40
2023-02-25T23:47:46.766Z,15.05
2023-02-25T23:50:15.790Z,22.10
2023-02-25T23:52:44.496Z,20.25
2023-02-25T23:55:11.721Z,12.90
2023-02-25T23:57:38.622Z,4.88
